< < Back
Terminal Aerodrome Forecast


Current Version              Previous Versions:   1  2  3  4  5  6  7  8  9  

Terminal Aerodrome Forecast

066
FTUS42 KTAE 070543
TAFDHN
TAF
KDHN 070543Z 0706/0806 VRB05KT P6SM FEW200
     FM071300 33010G16KT P6SM SKC
     FM072300 29004KT P6SM SKC=

Latest METAR

064
SAUS70 KWBC 072100 RRG
MTRDHN
METAR KDHN 072053Z 32012KT 10SM CLR 14/M03 A3008 RMK AO2 SLP184
T01441033 56035


USA.gov is the U.S. government's official web portal to all federal, state and local government web resources and services.